Time;durP1;ratioP1;P1;durP2;ratioP2;P2;SDS_P1;SDS_P2;PMS_P1;PMS_P2;Temp;Humidity;BMP_temperature;BMP_pressure;BME280_temperature;BME280_humidity;BME280_pressure;Samples;Min_cycle;Max_cycle;Signal;HPM_P1;HPM_P2
2021/09/06 00:02:17;;;;;;;7.78;4.93;;;461.30;2048.00;;;;;;4913982;29;20482;-80
2021/09/06 00:04:43;;;;;;;7.95;5.25;;;461.30;2048.00;;;;;;4922862;29;20048;-79
2021/09/06 00:07:10;;;;;;;6.30;4.55;;;461.30;2048.00;;;;;;4937654;29;20032;-81
2021/09/06 00:09:36;;;;;;;7.40;5.53;;;461.30;2048.00;;;;;;4922527;29;20055;-80
2021/09/06 00:12:02;;;;;;;10.38;5.40;;;461.30;2048.00;;;;;;4922569;29;20074;-79
2021/09/06 00:14:28;;;;;;;8.27;5.10;;;461.30;2073.60;;;;;;4923872;29;20040;-82
2021/09/06 00:16:53;;;;;;;8.82;5.38;;;461.10;2073.60;;;;;;4930541;29;20494;-81
2021/09/06 00:19:21;;;;;;;10.70;5.05;;;461.00;2073.60;;;;;;4946283;29;20039;-81
2021/09/06 00:21:47;;;;;;;7.13;5.28;;;460.90;2099.20;;;;;;4923122;29;20020;-81
2021/09/06 00:24:12;;;;;;;6.88;5.00;;;460.90;2099.20;;;;;;4922286;29;20046;-82
2021/09/06 00:26:38;;;;;;;8.20;5.22;;;460.90;2099.20;;;;;;4922484;29;20056;-79
2021/09/06 00:29:05;;;;;;;8.35;4.60;;;460.90;2073.60;;;;;;4939454;29;20107;-79
2021/09/06 00:31:30;;;;;;;11.35;4.80;;;460.80;2073.60;;;;;;4922188;29;20122;-79
2021/09/06 00:33:56;;;;;;;8.30;5.13;;;460.80;2073.60;;;;;;4939525;29;20087;-79
2021/09/06 00:36:22;;;;;;;6.85;5.20;;;460.80;2073.60;;;;;;4921998;29;20114;-80
2021/09/06 00:38:48;;;;;;;6.97;5.25;;;460.90;2073.60;;;;;;4939417;29;20079;-79
2021/09/06 00:41:13;;;;;;;9.88;5.72;;;460.90;2073.60;;;;;;4939666;29;20099;-78
2021/09/06 00:43:40;;;;;;;7.47;5.18;;;460.90;2073.60;;;;;;4939389;29;20474;-80
2021/09/06 00:46:05;;;;;;;7.07;4.72;;;460.80;2048.00;;;;;;4939554;29;20032;-78
2021/09/06 00:48:33;;;;;;;7.72;5.22;;;460.80;2022.40;;;;;;4922239;29;20094;-77
2021/09/06 00:50:59;;;;;;;8.38;5.28;;;460.80;2048.00;;;;;;4938977;29;20031;-78
2021/09/06 00:53:24;;;;;;;7.85;4.72;;;436.10;2022.40;;;;;;4921843;29;20031;-80
2021/09/06 00:55:50;;;;;;;7.50;5.32;;;436.10;2022.40;;;;;;4921044;29;20027;-82
2021/09/06 00:58:17;;;;;;;8.07;5.85;;;436.00;2022.40;;;;;;4939129;29;20028;-80
2021/09/06 01:00:42;;;;;;;6.70;4.60;;;436.10;2048.00;;;;;;4922089;29;20031;-78
2021/09/06 01:03:08;;;;;;;8.70;5.30;;;435.80;2073.60;;;;;;4938753;29;20027;-80
2021/09/06 01:05:34;;;;;;;7.60;5.07;;;435.80;2073.60;;;;;;4921814;29;20047;-78
2021/09/06 01:08:00;;;;;;;7.20;4.88;;;435.80;2073.60;;;;;;4938893;29;20016;-78
2021/09/06 01:10:26;;;;;;;7.63;6.10;;;435.80;2073.60;;;;;;4921255;29;20094;-81
2021/09/06 01:12:52;;;;;;;8.63;5.53;;;435.80;2073.60;;;;;;4920878;29;20486;-78
2021/09/06 01:15:18;;;;;;;8.02;5.20;;;435.70;2073.60;;;;;;4921932;29;20030;-80
2021/09/06 01:17:44;;;;;;;5.43;4.35;;;435.70;2073.60;;;;;;4938425;29;20027;-81
2021/09/06 01:20:11;;;;;;;7.63;4.65;;;435.70;2073.60;;;;;;4938716;29;20019;-80
2021/09/06 01:22:38;;;;;;;7.18;4.55;;;435.70;2073.60;;;;;;4921408;29;20040;-82
2021/09/06 01:25:05;;;;;;;7.45;4.13;;;435.70;2073.60;;;;;;4938372;29;20118;-79
2021/09/06 01:27:31;;;;;;;6.00;4.53;;;435.70;2073.60;;;;;;4921509;29;20047;-79
2021/09/06 01:29:57;;;;;;;7.43;4.78;;;435.70;2073.60;;;;;;4938585;29;20102;-80
2021/09/06 01:32:23;;;;;;;7.78;5.57;;;435.70;2073.60;;;;;;4921369;29;20079;-79
2021/09/06 01:34:49;;;;;;;9.30;6.10;;;435.60;2073.60;;;;;;4921538;29;20023;-80
2021/09/06 01:37:16;;;;;;;7.95;5.28;;;435.60;2124.80;;;;;;4937468;29;20035;-80
2021/09/06 01:39:42;;;;;;;8.48;5.75;;;435.60;2124.80;;;;;;4938439;29;20035;-79
2021/09/06 01:42:08;;;;;;;8.43;5.50;;;435.60;2124.80;;;;;;4938570;29;20386;-79
2021/09/06 01:44:34;;;;;;;8.38;5.63;;;435.50;2099.20;;;;;;4938123;29;20039;-79
2021/09/06 01:47:00;;;;;;;9.23;5.15;;;435.50;2099.20;;;;;;4938248;29;20034;-78
2021/09/06 01:49:25;;;;;;;6.35;4.78;;;435.50;2099.20;;;;;;4938594;29;20062;-79
2021/09/06 01:51:51;;;;;;;8.95;5.53;;;435.50;2099.20;;;;;;4921103;29;20120;-78
2021/09/06 01:54:17;;;;;;;11.85;5.88;;;435.50;2124.80;;;;;;4921061;29;20039;-79
2021/09/06 01:56:43;;;;;;;7.07;5.13;;;435.30;2124.80;;;;;;4938803;29;20019;-81
2021/09/06 01:59:09;;;;;;;9.60;5.88;;;435.20;2124.80;;;;;;4938325;29;20030;-79
2021/09/06 02:01:35;;;;;;;8.15;5.20;;;410.50;2150.40;;;;;;4920589;29;20050;-79
2021/09/06 02:04:01;;;;;;;6.97;5.05;;;410.20;2227.20;;;;;;4936379;29;20031;-79
2021/09/06 02:06:27;;;;;;;8.90;5.70;;;410.00;2252.80;;;;;;4937938;29;20023;-79
2021/09/06 02:08:56;;;;;;;8.00;5.38;;;409.80;2278.40;;;;;;4920889;29;20057;-79
2021/09/06 02:11:23;;;;;;;6.72;5.07;;;409.60;2329.60;;;;;;4937841;29;20031;-79
2021/09/06 02:13:49;;;;;;;9.43;5.68;;;384.80;2329.60;;;;;;4921867;29;20083;-79
2021/09/06 02:16:15;;;;;;;8.55;5.57;;;384.50;2329.60;;;;;;4924575;29;20038;-80
2021/09/06 02:18:41;;;;;;;7.00;4.95;;;384.50;2329.60;;;;;;4939535;29;20023;-79
2021/09/06 02:21:06;;;;;;;8.35;5.28;;;384.60;2329.60;;;;;;4937771;29;20569;-78
2021/09/06 02:23:32;;;;;;;7.72;5.55;;;384.60;2329.60;;;;;;4937996;29;20032;-81
2021/09/06 02:25:58;;;;;;;8.63;5.50;;;384.70;2329.60;;;;;;4937364;29;20027;-79
2021/09/06 02:28:24;;;;;;;7.65;5.68;;;384.90;2329.60;;;;;;4936984;29;20019;-79
2021/09/06 02:30:49;;;;;;;7.30;5.82;;;384.90;2329.60;;;;;;4937749;29;20054;-81
2021/09/06 02:33:15;;;;;;;9.13;6.22;;;409.60;2355.20;;;;;;4919271;29;20040;-80
2021/09/06 02:35:41;;;;;;;11.85;6.13;;;384.90;2329.60;;;;;;4922253;29;20055;-80
2021/09/06 02:38:07;;;;;;;7.93;5.60;;;384.90;2329.60;;;;;;4921342;29;20360;-79
2021/09/06 02:40:32;;;;;;;9.55;5.53;;;384.90;2329.60;;;;;;4904007;29;20127;-79
2021/09/06 02:42:58;;;;;;;10.65;5.53;;;409.60;2355.20;;;;;;4920771;29;20160;-79
2021/09/06 02:45:24;;;;;;;10.80;5.55;;;409.60;2355.20;;;;;;4902730;29;20180;-81
2021/09/06 02:47:49;;;;;;;10.63;6.85;;;409.70;2355.20;;;;;;4906514;29;20028;-81
2021/09/06 02:50:15;;;;;;;8.88;6.10;;;409.70;2355.20;;;;;;4921214;29;20083;-81
2021/09/06 02:52:41;;;;;;;10.45;6.07;;;409.80;2355.20;;;;;;4922204;29;20187;-81
2021/09/06 02:55:08;;;;;;;8.38;6.07;;;409.80;2355.20;;;;;;4938609;29;20383;-80
2021/09/06 02:57:34;;;;;;;9.63;6.82;;;409.80;2329.60;;;;;;4937127;29;20019;-81
2021/09/06 02:59:59;;;;;;;9.65;6.00;;;409.80;2329.60;;;;;;4918915;29;20474;-79
2021/09/06 03:02:26;;;;;;;8.52;5.68;;;409.80;2329.60;;;;;;4936957;29;20051;-80
2021/09/06 03:04:52;;;;;;;12.30;6.97;;;409.90;2329.60;;;;;;4936352;29;20048;-79
2021/09/06 03:07:19;;;;;;;8.90;6.22;;;409.80;2329.60;;;;;;4937142;29;20026;-78
2021/09/06 03:09:48;;;;;;;11.00;6.13;;;409.60;2355.20;;;;;;4937039;29;20042;-79
2021/09/06 03:12:13;;;;;;;7.97;6.47;;;409.60;2355.20;;;;;;4936995;29;20023;-79
2021/09/06 03:14:39;;;;;;;11.52;5.95;;;384.90;2329.60;;;;;;4936565;29;20078;-81
2021/09/06 03:17:05;;;;;;;8.38;5.88;;;409.60;2355.20;;;;;;4919522;29;20138;-78
2021/09/06 03:19:31;;;;;;;8.63;5.40;;;409.60;2329.60;;;;;;4919991;29;20082;-80
2021/09/06 03:21:57;;;;;;;9.35;5.22;;;409.70;2355.20;;;;;;4919800;29;20103;-80
2021/09/06 03:24:22;;;;;;;8.18;6.35;;;409.60;2355.20;;;;;;4919318;29;20040;-81
2021/09/06 03:26:48;;;;;;;9.38;6.20;;;384.80;2329.60;;;;;;4919255;29;20509;-79
2021/09/06 03:29:14;;;;;;;12.18;7.07;;;384.70;2329.60;;;;;;4919144;29;20038;-78
2021/09/06 03:31:40;;;;;;;9.25;6.50;;;384.40;2329.60;;;;;;4918860;29;20119;-78
2021/09/06 03:34:05;;;;;;;10.18;6.47;;;384.20;2329.60;;;;;;4936282;29;20079;-80
2021/09/06 03:36:31;;;;;;;8.48;5.93;;;384.10;2329.60;;;;;;4921943;29;20036;-78
2021/09/06 03:38:57;;;;;;;12.65;6.13;;;384.00;2329.60;;;;;;4940381;29;20071;-78
2021/09/06 03:41:23;;;;;;;8.55;5.75;;;384.00;2329.60;;;;;;4940536;29;20107;-79
2021/09/06 03:43:51;;;;;;;9.60;6.30;;;384.00;2329.60;;;;;;4940986;29;20474;-78
2021/09/06 03:46:17;;;;;;;8.05;5.57;;;384.10;2329.60;;;;;;4940340;29;20115;-78
2021/09/06 03:48:43;;;;;;;8.63;6.03;;;384.10;2329.60;;;;;;4923201;29;20040;-78
2021/09/06 03:51:08;;;;;;;9.27;6.22;;;384.10;2329.60;;;;;;4940617;29;20032;-78
2021/09/06 03:53:34;;;;;;;8.02;6.15;;;384.20;2329.60;;;;;;4923103;29;20034;-79
2021/09/06 03:56:00;;;;;;;9.40;6.35;;;384.20;2329.60;;;;;;4923153;29;20537;-80
2021/09/06 03:58:26;;;;;;;9.18;6.43;;;384.20;2329.60;;;;;;4940219;29;20032;-79
2021/09/06 04:00:51;;;;;;;7.95;5.55;;;384.30;2329.60;;;;;;4922301;29;20039;-79
2021/09/06 04:03:17;;;;;;;9.15;7.38;;;384.30;2329.60;;;;;;4939374;29;20486;-79
2021/09/06 04:05:43;;;;;;;11.65;6.38;;;384.30;2329.60;;;;;;4925559;29;20060;-80
2021/09/06 04:08:09;;;;;;;9.32;6.22;;;384.40;2329.60;;;;;;4935465;29;20096;-79
2021/09/06 04:10:35;;;;;;;9.68;6.70;;;384.40;2329.60;;;;;;4939723;29;20445;-80
2021/09/06 04:13:01;;;;;;;8.52;6.20;;;384.40;2329.60;;;;;;4942575;29;20103;-79
2021/09/06 04:15:27;;;;;;;8.85;5.97;;;384.30;2329.60;;;;;;4945745;29;20043;-81
2021/09/06 04:17:53;;;;;;;9.75;5.63;;;384.20;2329.60;;;;;;4948654;29;20039;-83
2021/09/06 04:20:19;;;;;;;11.10;5.90;;;384.20;2329.60;;;;;;4940163;29;20024;-81
2021/09/06 04:22:45;;;;;;;10.52;7.70;;;384.10;2329.60;;;;;;4939327;29;20058;-81
2021/09/06 04:25:11;;;;;;;12.63;7.68;;;384.10;2329.60;;;;;;4938958;29;20032;-81
2021/09/06 04:27:38;;;;;;;9.50;7.05;;;359.20;2329.60;;;;;;4939107;29;20024;-81
2021/09/06 04:30:05;;;;;;;11.95;7.47;;;359.30;2329.60;;;;;;4922421;29;20060;-79
2021/09/06 04:32:31;;;;;;;10.82;6.90;;;359.30;2329.60;;;;;;4920512;29;20179;-78
2021/09/06 04:34:57;;;;;;;9.25;6.40;;;359.30;2329.60;;;;;;4938329;29;20106;-79
2021/09/06 04:37:23;;;;;;;8.73;6.35;;;359.30;2329.60;;;;;;4939153;29;20028;-80
2021/09/06 04:39:49;;;;;;;9.52;6.35;;;359.30;2329.60;;;;;;4922071;29;20031;-78
2021/09/06 04:42:15;;;;;;;7.93;5.28;;;359.30;2329.60;;;;;;4921928;29;20126;-79
2021/09/06 04:44:42;;;;;;;8.20;6.40;;;359.20;2329.60;;;;;;4922169;29;20055;-79
2021/09/06 04:47:09;;;;;;;8.57;6.30;;;359.30;2329.60;;;;;;4938707;29;20028;-82
2021/09/06 04:49:34;;;;;;;8.57;5.60;;;359.30;2329.60;;;;;;4939364;29;20031;-81
2021/09/06 04:52:00;;;;;;;9.55;6.32;;;359.30;2329.60;;;;;;4922637;29;20079;-82
2021/09/06 04:54:26;;;;;;;8.18;6.18;;;359.30;2329.60;;;;;;4922041;29;20461;-82
2021/09/06 04:56:51;;;;;;;9.88;7.03;;;384.00;2329.60;;;;;;4939549;29;20059;-82
2021/09/06 04:59:21;;;;;;;8.32;6.03;;;384.00;2329.60;;;;;;4921690;29;20031;-82
2021/09/06 05:01:47;;;;;;;9.25;6.63;;;359.30;2329.60;;;;;;4939219;29;20031;-78
2021/09/06 05:04:13;;;;;;;10.93;5.88;;;384.00;2329.60;;;;;;4921862;29;20047;-80
2021/09/06 05:06:39;;;;;;;10.75;5.95;;;384.00;2329.60;;;;;;4919647;29;20024;-79
2021/09/06 05:09:05;;;;;;;10.77;6.88;;;384.00;2329.60;;;;;;4938642;29;20038;-79
2021/09/06 05:11:32;;;;;;;8.98;6.30;;;384.00;2329.60;;;;;;4938982;29;20039;-78
2021/09/06 05:13:58;;;;;;;7.47;5.32;;;384.00;2329.60;;;;;;4922190;29;20044;-78
2021/09/06 05:16:24;;;;;;;9.18;5.75;;;384.00;2329.60;;;;;;4938833;29;20043;-77
2021/09/06 05:18:49;;;;;;;11.00;7.03;;;384.10;2329.60;;;;;;4921604;29;20122;-79
2021/09/06 05:21:15;;;;;;;9.52;6.45;;;384.10;2329.60;;;;;;4938545;29;20465;-79
2021/09/06 05:23:41;;;;;;;9.68;5.88;;;384.20;2329.60;;;;;;4938223;29;20035;-79
2021/09/06 05:26:06;;;;;;;8.50;6.22;;;384.20;2329.60;;;;;;4938745;29;20038;-79
2021/09/06 05:28:32;;;;;;;8.40;6.47;;;384.30;2329.60;;;;;;4921746;29;20498;-80
2021/09/06 05:30:58;;;;;;;9.13;6.60;;;384.30;2329.60;;;;;;4938741;29;20039;-80
2021/09/06 05:33:24;;;;;;;11.35;6.75;;;384.40;2329.60;;;;;;4920666;29;20059;-77
2021/09/06 05:35:49;;;;;;;9.70;6.25;;;384.40;2329.60;;;;;;4920494;29;20046;-78
2021/09/06 05:38:15;;;;;;;10.07;6.35;;;384.40;2329.60;;;;;;4938423;29;20058;-78
2021/09/06 05:40:41;;;;;;;8.25;6.40;;;384.50;2329.60;;;;;;4937849;29;20458;-78
2021/09/06 05:43:06;;;;;;;10.98;6.80;;;384.60;2329.60;;;;;;4937897;29;20060;-78
2021/09/06 05:45:32;;;;;;;9.23;6.50;;;384.60;2329.60;;;;;;4938321;29;20053;-78
2021/09/06 05:47:58;;;;;;;8.70;6.65;;;384.70;2329.60;;;;;;4936844;29;20022;-78
2021/09/06 05:50:25;;;;;;;9.65;6.55;;;384.80;2329.60;;;;;;4920787;29;20039;-78
2021/09/06 05:52:52;;;;;;;8.25;5.45;;;384.80;2329.60;;;;;;4921615;29;20024;-81
2021/09/06 05:55:19;;;;;;;10.63;6.78;;;384.90;2329.60;;;;;;4937580;29;20036;-79
2021/09/06 05:57:45;;;;;;;10.60;7.38;;;409.60;2355.20;;;;;;4921640;29;20114;-78
2021/09/06 06:00:11;;;;;;;10.00;7.35;;;409.70;2355.20;;;;;;4920781;29;20115;-78
2021/09/06 06:02:37;;;;;;;10.70;6.85;;;409.80;2355.20;;;;;;4938502;29;20024;-81
2021/09/06 06:05:03;;;;;;;12.35;7.00;;;409.80;2355.20;;;;;;4937472;29;20044;-82
2021/09/06 06:07:29;;;;;;;8.57;6.05;;;409.80;2355.20;;;;;;4920884;29;20067;-80
2021/09/06 06:09:55;;;;;;;7.38;5.60;;;409.80;2355.20;;;;;;4937328;29;20103;-83
2021/09/06 06:12:21;;;;;;;8.27;6.32;;;409.90;2355.20;;;;;;4935283;29;20028;-80
2021/09/06 06:14:47;;;;;;;9.95;6.03;;;409.90;2355.20;;;;;;4920057;29;20035;-81
2021/09/06 06:17:12;;;;;;;9.32;6.35;;;409.90;2355.20;;;;;;4919762;29;20123;-84
2021/09/06 06:19:38;;;;;;;7.47;5.57;;;409.90;2355.20;;;;;;4927765;29;20031;-85
2021/09/06 06:22:06;;;;;;;9.40;6.30;;;410.00;2355.20;;;;;;4927271;29;20024;-84
2021/09/06 06:24:32;;;;;;;10.50;7.00;;;410.10;2355.20;;;;;;4937058;29;20059;-83
2021/09/06 06:26:58;;;;;;;10.15;7.10;;;410.20;2355.20;;;;;;4921833;29;20038;-82
2021/09/06 06:29:23;;;;;;;9.70;6.38;;;410.20;2355.20;;;;;;4933185;29;20038;-82
2021/09/06 06:32:00;;;;;;;9.70;6.13;;;410.20;2355.20;;;;;;5102570;27;20386;-80
2021/09/06 06:34:26;;;;;;;10.73;5.75;;;410.30;2355.20;;;;;;5113191;28;20028;-78
2021/09/06 06:36:51;;;;;;;8.23;5.47;;;410.40;2355.20;;;;;;5082417;28;20036;-80
2021/09/06 06:39:18;;;;;;;8.40;5.53;;;435.30;2355.20;;;;;;5071998;28;20029;-78
2021/09/06 06:41:47;;;;;;;9.48;5.57;;;435.40;2355.20;;;;;;5080501;28;20037;-77
2021/09/06 06:44:13;;;;;;;6.25;4.68;;;435.60;2355.20;;;;;;5090311;28;20400;-78
2021/09/06 06:46:39;;;;;;;10.85;7.03;;;435.90;2355.20;;;;;;5093322;28;20042;-78
2021/09/06 06:49:05;;;;;;;7.90;5.28;;;436.10;2329.60;;;;;;5090519;28;20462;-78
2021/09/06 06:51:31;;;;;;;10.15;5.50;;;460.90;2304.00;;;;;;5088625;28;20024;-78
2021/09/06 06:53:57;;;;;;;8.40;6.28;;;461.10;2304.00;;;;;;5087686;28;20412;-79
2021/09/06 06:56:23;;;;;;;16.80;6.88;;;461.30;2278.40;;;;;;5091184;28;20028;-78
2021/09/06 06:58:48;;;;;;;9.82;6.07;;;461.40;2176.00;;;;;;5089640;28;20111;-76
2021/09/06 07:01:14;;;;;;;11.95;6.63;;;461.50;2176.00;;;;;;5081470;28;20059;-78
2021/09/06 07:03:40;;;;;;;10.45;6.28;;;461.60;2124.80;;;;;;5070265;28;20060;-77
2021/09/06 07:06:05;;;;;;;12.25;7.40;;;461.70;2099.20;;;;;;5070705;28;20453;-77
2021/09/06 07:08:31;;;;;;;11.88;6.20;;;461.70;2099.20;;;;;;5074925;28;20032;-77
2021/09/06 07:10:57;;;;;;;8.45;6.15;;;461.70;2073.60;;;;;;5089343;28;20040;-78
2021/09/06 07:13:23;;;;;;;8.77;6.10;;;486.40;2099.20;;;;;;5092052;28;20473;-80
2021/09/06 07:15:48;;;;;;;9.63;6.72;;;486.50;2073.60;;;;;;5091194;28;20106;-78
2021/09/06 07:18:14;;;;;;;7.53;5.25;;;486.50;2022.40;;;;;;5091837;28;20024;-78
2021/09/06 07:20:40;;;;;;;10.80;5.45;;;486.60;1971.20;;;;;;5090215;28;20512;-79
2021/09/06 07:23:06;;;;;;;7.53;4.95;;;486.80;1945.60;;;;;;5092414;28;20032;-79
2021/09/06 07:25:31;;;;;;;8.02;4.80;;;486.80;1945.60;;;;;;5089988;28;20024;-78
2021/09/06 07:27:57;;;;;;;11.45;5.32;;;486.90;1894.40;;;;;;5085783;28;20478;-78
2021/09/06 07:30:23;;;;;;;9.48;4.60;;;487.00;1894.40;;;;;;5085408;28;20447;-77
2021/09/06 07:32:49;;;;;;;12.07;5.95;;;487.10;1868.80;;;;;;5088428;28;20032;-76
2021/09/06 07:35:14;;;;;;;7.20;5.20;;;487.20;1868.80;;;;;;5085047;28;20393;-79
2021/09/06 07:37:41;;;;;;;7.18;5.03;;;487.20;1843.20;;;;;;5088707;28;20024;-78
2021/09/06 07:40:11;;;;;;;11.27;5.65;;;487.30;1868.80;;;;;;5090051;28;20035;-79
2021/09/06 07:42:40;;;;;;;10.07;4.95;;;487.30;1843.20;;;;;;5080332;28;20028;-79
2021/09/06 07:45:07;;;;;;;8.07;4.60;;;487.30;1817.60;;;;;;5076446;28;20031;-78
2021/09/06 07:47:34;;;;;;;6.50;4.05;;;512.00;1792.00;;;;;;5076520;28;20362;-77
2021/09/06 07:50:00;;;;;;;10.90;5.30;;;512.10;1792.00;;;;;;5075265;28;20035;-79
2021/09/06 07:52:27;;;;;;;5.75;4.25;;;512.10;1792.00;;;;;;5074997;28;20021;-77
2021/09/06 07:54:53;;;;;;;9.43;4.70;;;512.20;1766.40;;;;;;5074758;28;20147;-77
2021/09/06 07:57:19;;;;;;;7.60;4.13;;;512.30;1740.80;;;;;;5075892;28;20099;-75
2021/09/06 07:59:44;;;;;;;5.35;4.10;;;512.40;1766.40;;;;;;5069053;28;20404;-77
2021/09/06 08:02:10;;;;;;;6.28;4.40;;;512.50;1740.80;;;;;;5074087;28;20036;-76
2021/09/06 08:04:36;;;;;;;6.43;3.90;;;512.60;1715.20;;;;;;5083490;28;20476;-77
2021/09/06 08:07:02;;;;;;;7.18;4.57;;;512.80;1715.20;;;;;;5078087;28;20043;-77
2021/09/06 08:09:28;;;;;;;8.27;4.35;;;512.80;1715.20;;;;;;5062938;28;20035;-77
2021/09/06 08:11:56;;;;;;;11.10;4.70;;;537.60;1740.80;;;;;;5086329;28;20032;-77
2021/09/06 08:14:22;;;;;;;9.85;4.00;;;512.90;1689.60;;;;;;5075722;28;20073;-79
2021/09/06 08:16:48;;;;;;;7.78;4.63;;;537.70;1740.80;;;;;;5077140;28;20039;-77
2021/09/06 08:19:14;;;;;;;6.30;3.78;;;537.90;1740.80;;;;;;5075848;28;20038;-76
2021/09/06 08:21:40;;;;;;;7.35;4.45;;;538.00;1715.20;;;;;;5073489;28;20032;-77
2021/09/06 08:24:06;;;;;;;7.22;4.78;;;538.10;1740.80;;;;;;5073597;28;20025;-78
2021/09/06 08:26:32;;;;;;;6.53;4.35;;;538.30;1715.20;;;;;;5073453;28;20495;-78
2021/09/06 08:28:58;;;;;;;6.72;3.92;;;538.40;1664.00;;;;;;5075787;28;20465;-78
2021/09/06 08:31:25;;;;;;;7.43;4.25;;;538.50;1664.00;;;;;;5075429;28;20538;-77
2021/09/06 08:33:51;;;;;;;8.07;4.50;;;563.20;1689.60;;;;;;5075493;28;20485;-76
2021/09/06 08:36:17;;;;;;;6.03;3.92;;;563.20;1638.40;;;;;;5074564;28;20714;-78
2021/09/06 08:38:43;;;;;;;8.40;3.80;;;563.30;1638.40;;;;;;5075130;28;20016;-78
2021/09/06 08:41:09;;;;;;;9.43;3.75;;;563.50;1664.00;;;;;;5074647;28;20385;-76
2021/09/06 08:43:35;;;;;;;6.35;4.10;;;563.70;1664.00;;;;;;5075572;28;20131;-78
2021/09/06 08:46:01;;;;;;;9.07;4.65;;;563.80;1638.40;;;;;;5073906;28;20473;-78
2021/09/06 08:48:27;;;;;;;7.05;4.47;;;564.00;1664.00;;;;;;5074562;28;20021;-78
2021/09/06 08:50:53;;;;;;;5.88;3.88;;;588.80;1638.40;;;;;;5090674;28;20036;-78
2021/09/06 08:53:20;;;;;;;6.90;4.07;;;588.90;1638.40;;;;;;5074899;28;20017;-78
2021/09/06 08:55:46;;;;;;;7.65;4.35;;;589.00;1612.80;;;;;;5073726;28;20082;-79
2021/09/06 08:58:11;;;;;;;9.85;4.78;;;589.10;1587.20;;;;;;5071316;28;20036;-79
2021/09/06 09:00:37;;;;;;;6.97;3.97;;;589.20;1561.60;;;;;;5072928;28;20037;-78
2021/09/06 09:03:10;;;;;;;7.80;4.75;;;589.40;1587.20;;;;;;5073919;28;20417;-78
2021/09/06 09:05:36;;;;;;;8.77;3.92;;;589.40;1536.00;;;;;;5075223;28;20295;-78
2021/09/06 09:08:02;;;;;;;8.60;4.80;;;589.50;1536.00;;;;;;5091238;28;20055;-78
2021/09/06 09:10:31;;;;;;;7.30;4.93;;;589.60;1561.60;;;;;;5074937;28;20035;-78
2021/09/06 09:13:08;;;;;;;7.68;3.95;;;614.40;1510.40;;;;;;5075115;28;20052;-78
2021/09/06 09:15:36;;;;;;;6.78;4.10;;;614.40;1510.40;;;;;;5073933;28;20047;-78
2021/09/06 09:18:02;;;;;;;6.20;4.32;;;614.50;1484.80;;;;;;5072281;28;20103;-78
2021/09/06 09:20:41;;;;;;;7.95;5.15;;;614.50;1510.40;;;;;;5074577;28;20101;-78
2021/09/06 09:23:08;;;;;;;7.47;4.10;;;614.50;1484.80;;;;;;5074204;28;20430;-78
2021/09/06 09:25:34;;;;;;;7.15;4.47;;;614.60;1510.40;;;;;;5074399;28;20469;-78
2021/09/06 09:28:00;;;;;;;6.53;4.35;;;614.80;1484.80;;;;;;5075378;28;20016;-78
2021/09/06 09:30:29;;;;;;;6.50;3.90;;;614.80;1459.20;;;;;;5071928;28;20436;-78
2021/09/06 09:33:12;;;;;;;7.50;4.32;;;614.80;1459.20;;;;;;5071057;28;20075;-77
2021/09/06 09:35:40;;;;;;;7.95;4.90;;;614.80;1459.20;;;;;;5072752;28;20021;-79
2021/09/06 09:38:08;;;;;;;6.28;3.95;;;615.00;1484.80;;;;;;5070495;28;20048;-78
2021/09/06 09:40:37;;;;;;;6.63;4.20;;;615.20;1459.20;;;;;;5072690;28;20028;-78
2021/09/06 09:43:03;;;;;;;6.45;3.78;;;615.30;1459.20;;;;;;5070184;28;20036;-78
2021/09/06 09:45:29;;;;;;;6.15;3.65;;;640.00;1459.20;;;;;;5071772;28;20021;-77
2021/09/06 09:47:57;;;;;;;5.97;3.95;;;640.20;1433.60;;;;;;5072079;28;20016;-78
2021/09/06 09:50:25;;;;;;;8.20;4.32;;;640.40;1408.00;;;;;;5072404;28;20036;-78
2021/09/06 09:52:51;;;;;;;8.07;4.47;;;640.50;1382.40;;;;;;5086743;28;20059;-78
2021/09/06 09:55:18;;;;;;;6.18;4.18;;;640.60;1382.40;;;;;;5087072;28;20119;-79
2021/09/06 09:57:44;;;;;;;5.82;3.88;;;640.60;1356.80;;;;;;5071239;28;20062;-78
2021/09/06 10:00:12;;;;;;;8.48;4.30;;;640.70;1382.40;;;;;;5071489;28;20025;-79
2021/09/06 10:02:39;;;;;;;6.60;3.67;;;640.80;1331.20;;;;;;5071168;28;20054;-79
2021/09/06 10:05:08;;;;;;;6.75;3.97;;;640.90;1382.40;;;;;;5071285;28;20104;-78
2021/09/06 10:07:38;;;;;;;6.05;3.90;;;665.60;1356.80;;;;;;5071425;28;20044;-77
2021/09/06 10:10:35;;;;;;;5.35;3.88;;;665.70;1408.00;;;;;;5069466;28;20103;-78
2021/09/06 10:13:07;;;;;;;6.47;3.97;;;666.00;1331.20;;;;;;5071240;28;20036;-78
2021/09/06 10:15:34;;;;;;;5.57;4.07;;;666.00;1356.80;;;;;;5069922;28;20043;-78
2021/09/06 10:18:13;;;;;;;7.60;4.10;;;666.00;1331.20;;;;;;5069293;28;20044;-78
2021/09/06 10:20:39;;;;;;;6.25;4.32;;;666.10;1356.80;;;;;;5052669;28;20036;-79
2021/09/06 10:23:10;;;;;;;6.43;4.00;;;666.20;1331.20;;;;;;5088939;28;20506;-77
2021/09/06 10:25:39;;;;;;;6.72;4.55;;;666.20;1331.20;;;;;;5073271;28;20032;-80
2021/09/06 10:28:07;;;;;;;6.95;3.47;;;666.40;1331.20;;;;;;5074164;28;20381;-79
2021/09/06 10:30:38;;;;;;;8.48;4.18;;;666.40;1305.60;;;;;;5089063;28;20110;-78
2021/09/06 10:33:06;;;;;;;8.40;4.10;;;666.40;1331.20;;;;;;5062412;28;20028;-79
2021/09/06 10:35:32;;;;;;;6.15;3.28;;;666.50;1331.20;;;;;;5071757;28;20055;-81
2021/09/06 10:38:12;;;;;;;8.32;4.22;;;666.50;1305.60;;;;;;5069974;28;20028;-79
2021/09/06 10:40:41;;;;;;;6.80;3.92;;;666.40;1305.60;;;;;;5070043;28;20032;-80
2021/09/06 10:43:21;;;;;;;5.90;3.53;;;666.50;1280.00;;;;;;5087705;28;20039;-79
2021/09/06 10:45:50;;;;;;;5.25;3.60;;;666.40;1305.60;;;;;;5072351;28;20052;-79
2021/09/06 10:48:18;;;;;;;7.38;3.60;;;691.20;1331.20;;;;;;5086628;28;20025;-80
2021/09/06 10:50:45;;;;;;;6.50;4.25;;;691.30;1305.60;;;;;;5072095;28;20488;-79
2021/09/06 10:53:19;;;;;;;6.63;3.58;;;691.60;1331.20;;;;;;5088208;28;20133;-80
2021/09/06 10:55:50;;;;;;;7.18;3.97;;;691.80;1305.60;;;;;;5070876;28;20036;-81
2021/09/06 10:58:16;;;;;;;6.63;3.88;;;692.00;1280.00;;;;;;5063658;28;20040;-79
2021/09/06 11:00:52;;;;;;;6.80;4.50;;;692.10;1280.00;;;;;;5072476;28;20417;-78
2021/09/06 11:03:19;;;;;;;7.00;5.05;;;716.80;1280.00;;;;;;5071794;28;20040;-80
2021/09/06 11:05:53;;;;;;;6.30;3.35;;;717.00;1254.40;;;;;;5073729;28;20024;-83
2021/09/06 11:08:26;;;;;;;7.10;3.88;;;717.30;1228.80;;;;;;5072087;28;20071;-81
2021/09/06 11:10:53;;;;;;;6.45;3.72;;;717.40;1228.80;;;;;;5073168;28;20059;-81
2021/09/06 11:13:20;;;;;;;9.25;4.72;;;717.60;1254.40;;;;;;5071314;28;20033;-80
2021/09/06 11:15:46;;;;;;;6.53;3.88;;;717.60;1177.60;;;;;;5070201;28;20100;-80
2021/09/06 11:18:12;;;;;;;5.50;3.38;;;717.60;1228.80;;;;;;5091279;28;20111;-79
2021/09/06 11:20:39;;;;;;;6.47;3.58;;;717.70;1203.20;;;;;;5073917;28;20050;-80
2021/09/06 11:23:09;;;;;;;5.70;3.83;;;717.70;1177.60;;;;;;5073881;28;20033;-80
2021/09/06 11:25:38;;;;;;;6.97;4.57;;;717.70;1203.20;;;;;;5075696;28;20025;-79
2021/09/06 11:28:14;;;;;;;6.68;3.88;;;717.70;1177.60;;;;;;5075670;28;20029;-79
2021/09/06 11:30:43;;;;;;;5.18;3.53;;;717.70;1177.60;;;;;;5091866;28;20140;-78
2021/09/06 11:33:10;;;;;;;6.00;3.60;;;742.40;1203.20;;;;;;5074838;28;20064;-78
2021/09/06 11:35:37;;;;;;;5.18;3.58;;;742.60;1177.60;;;;;;5092760;28;20036;-81
2021/09/06 11:38:04;;;;;;;4.13;3.05;;;742.70;1177.60;;;;;;5074088;28;20024;-80
2021/09/06 11:40:30;;;;;;;6.72;3.70;;;742.60;1177.60;;;;;;5075476;28;20036;-82
2021/09/06 11:42:57;;;;;;;7.88;3.78;;;742.70;1177.60;;;;;;5076851;28;20020;-80
2021/09/06 11:45:24;;;;;;;5.22;3.08;;;742.70;1177.60;;;;;;5076723;28;20686;-81
2021/09/06 11:47:51;;;;;;;5.45;2.72;;;742.80;1152.00;;;;;;5077774;28;20380;-81
2021/09/06 11:50:20;;;;;;;4.53;3.28;;;743.00;1177.60;;;;;;5090984;28;20385;-81
2021/09/06 11:52:47;;;;;;;6.13;3.53;;;743.10;1177.60;;;;;;5070656;28;20045;-81
2021/09/06 11:55:19;;;;;;;5.43;4.13;;;743.10;1177.60;;;;;;5073715;28;20712;-82
2021/09/06 11:57:45;;;;;;;4.82;3.28;;;743.30;1177.60;;;;;;5072570;28;20481;-80
2021/09/06 12:00:15;;;;;;;6.25;4.18;;;743.20;1152.00;;;;;;5076155;28;20042;-79
2021/09/06 12:02:51;;;;;;;6.10;4.40;;;743.30;1152.00;;;;;;5077217;28;20059;-81
2021/09/06 12:05:18;;;;;;;6.45;3.40;;;743.30;1126.40;;;;;;5076943;28;20016;-81
2021/09/06 12:07:53;;;;;;;5.65;4.93;;;743.30;1126.40;;;;;;5075898;28;20028;-83
2021/09/06 12:10:34;;;;;;;5.55;3.45;;;743.20;1126.40;;;;;;5076789;28;20024;-82
2021/09/06 12:13:08;;;;;;;5.53;3.22;;;768.00;1100.80;;;;;;5082063;28;20032;-83
2021/09/06 12:15:50;;;;;;;5.15;3.67;;;768.10;1126.40;;;;;;5078314;28;20481;-82